Time;durP1;ratioP1;P1;durP2;ratioP2;P2;SDS_P1;SDS_P2;PMS_P1;PMS_P2;Temp;Humidity;BMP_temperature;BMP_pressure;BME280_temperature;BME280_humidity;BME280_pressure;Samples;Min_cycle;Max_cycle;Signal;HPM_P1;HPM_P2
2022/05/08 00:02:18;;;;;;;7.85;2.27;;;;;;;14.52;39.49;100112.06;1751132;81;21058;-76
2022/05/08 00:04:45;;;;;;;5.30;2.50;;;;;;;14.48;39.56;100110.48;1751134;81;21053;-75
2022/05/08 00:07:12;;;;;;;5.35;2.60;;;;;;;14.44;39.54;100115.05;1751319;81;21065;-75
2022/05/08 00:09:39;;;;;;;10.18;3.05;;;;;;;14.38;39.47;100108.67;1751404;81;21125;-75
2022/05/08 00:12:07;;;;;;;4.87;2.27;;;;;;;14.32;39.56;100110.23;1750872;81;21015;-75
2022/05/08 00:14:33;;;;;;;4.85;1.90;;;;;;;14.25;39.68;100104.80;1751289;81;21121;-75
2022/05/08 00:17:00;;;;;;;5.83;2.27;;;;;;;14.21;39.59;100108.03;1751058;81;21058;-75
2022/05/08 00:19:26;;;;;;;3.30;2.33;;;;;;;14.18;39.63;100106.83;1750929;81;21065;-75
2022/05/08 00:21:53;;;;;;;9.20;2.45;;;;;;;14.15;39.66;100100.33;1751532;81;21214;-74
2022/05/08 00:24:19;;;;;;;6.53;2.00;;;;;;;14.12;39.67;100096.47;1751248;81;20986;-75
2022/05/08 00:26:46;;;;;;;8.90;2.60;;;;;;;14.09;39.79;100090.86;1751209;81;21011;-74
2022/05/08 00:29:12;;;;;;;9.88;2.52;;;;;;;14.05;39.73;100095.86;1750987;81;21707;-75
2022/05/08 00:31:42;;;;;;;15.98;2.70;;;;;;;14.02;40.01;100094.69;1751399;81;21472;-75
2022/05/08 00:34:09;;;;;;;4.60;2.58;;;;;;;13.95;40.09;100093.17;1751078;81;21141;-75
2022/05/08 00:36:35;;;;;;;6.53;2.10;;;;;;;13.92;40.03;100098.14;1751019;81;21054;-74
2022/05/08 00:39:02;;;;;;;3.98;2.25;;;;;;;13.90;40.12;100103.08;1751395;81;21062;-75
2022/05/08 00:41:28;;;;;;;10.43;2.98;;;;;;;13.89;40.22;100096.08;1750723;81;21570;-82
2022/05/08 00:43:54;;;;;;;3.40;1.90;;;;;;;13.88;40.33;100100.96;1750883;81;21710;-81
2022/05/08 00:46:21;;;;;;;4.05;1.98;;;;;;;13.86;40.34;100094.87;1750994;81;22051;-82
2022/05/08 00:48:48;;;;;;;6.90;2.58;;;;;;;13.84;40.46;100099.38;1750786;81;21061;-81
2022/05/08 00:51:17;;;;;;;6.70;2.25;;;;;;;13.81;40.38;100093.72;1751180;81;21054;-82
2022/05/08 00:53:46;;;;;;;5.47;2.80;;;;;;;13.82;40.60;100082.67;1751289;81;21051;-82
2022/05/08 00:56:15;;;;;;;10.93;2.35;;;;;;;13.81;40.53;100086.26;1759680;80;21215;-82
2022/05/08 00:58:43;;;;;;;5.67;2.00;;;;;;;13.81;40.63;100089.76;1791082;80;21128;-82
2022/05/08 01:01:10;;;;;;;9.00;1.98;;;;;;;13.82;40.61;100086.64;1791525;80;20994;-83
2022/05/08 01:03:38;;;;;;;4.50;1.98;;;;;;;13.82;40.63;100080.03;1791185;80;21062;-81
2022/05/08 01:06:12;;;;;;;5.70;2.60;;;;;;;13.80;40.83;100079.23;1791510;80;21045;-76
2022/05/08 01:08:42;;;;;;;10.72;3.10;;;;;;;13.78;40.89;100083.73;1791227;80;21076;-74
2022/05/08 01:11:09;;;;;;;3.58;2.25;;;;;;;13.74;40.93;100078.55;1791330;80;21079;-75
2022/05/08 01:13:36;;;;;;;4.78;2.67;;;;;;;13.71;41.02;100071.20;1790775;80;21054;-75
2022/05/08 01:16:17;;;;;;;6.25;2.22;;;;;;;13.68;41.05;100081.42;1791297;80;21109;-75
2022/05/08 01:18:45;;;;;;;6.78;2.50;;;;;;;13.66;41.20;100072.69;1790532;80;21108;-74
2022/05/08 01:21:15;;;;;;;6.70;2.10;;;;;;;13.64;41.20;100068.41;1791370;80;21145;-74
2022/05/08 01:23:42;;;;;;;8.18;2.20;;;;;;;13.62;41.34;100072.42;1791159;80;21187;-74
2022/05/08 01:26:09;;;;;;;7.97;2.40;;;;;;;13.57;41.59;100067.77;1790988;80;21077;-76
2022/05/08 01:28:35;;;;;;;5.97;2.20;;;;;;;13.52;41.69;100071.05;1791318;80;21045;-74
2022/05/08 01:31:02;;;;;;;5.12;2.10;;;;;;;13.47;41.70;100065.08;1791442;80;21053;-75
2022/05/08 01:33:28;;;;;;;3.77;2.30;;;;;;;13.43;41.97;100064.78;1767197;80;21010;-75
2022/05/08 01:35:56;;;;;;;5.67;2.10;;;;;;;13.38;42.01;100064.94;1759919;81;21101;-74
2022/05/08 01:38:23;;;;;;;4.33;2.30;;;;;;;13.34;42.05;100070.80;1760146;81;21707;-74
2022/05/08 01:40:50;;;;;;;7.45;2.33;;;;;;;13.32;42.16;100065.19;1759949;81;21122;-74
2022/05/08 01:43:18;;;;;;;7.92;2.52;;;;;;;13.28;42.29;100063.09;1759598;81;21088;-73
2022/05/08 01:45:45;;;;;;;3.85;2.17;;;;;;;13.23;42.56;100063.72;1759992;81;21085;-73
2022/05/08 01:48:23;;;;;;;5.28;2.15;;;;;;;13.18;42.56;100061.24;1759945;81;21194;-74
2022/05/08 01:50:59;;;;;;;7.47;2.00;;;;;;;13.14;42.68;100056.12;1759728;81;21562;-73
2022/05/08 01:53:28;;;;;;;8.68;2.12;;;;;;;13.13;42.71;100051.73;1759912;81;21078;-73
2022/05/08 01:55:55;;;;;;;6.15;2.37;;;;;;;13.12;42.81;100050.03;1759952;81;21192;-74
2022/05/08 01:58:24;;;;;;;6.10;2.15;;;;;;;13.08;42.77;100053.25;1759634;81;21102;-74
2022/05/08 02:00:53;;;;;;;6.72;2.75;;;;;;;13.07;42.88;100049.34;1760381;81;21102;-74
2022/05/08 02:03:20;;;;;;;2.98;2.22;;;;;;;13.05;43.13;100055.15;1759619;81;21018;-74
2022/05/08 02:05:47;;;;;;;8.58;2.37;;;;;;;12.99;43.22;100053.13;1759813;81;21446;-74
2022/05/08 02:08:14;;;;;;;7.35;2.33;;;;;;;12.94;43.31;100060.33;1760077;81;21730;-74
2022/05/08 02:10:42;;;;;;;2.85;2.10;;;;;;;12.91;43.48;100065.75;1759798;81;21029;-74
2022/05/08 02:13:09;;;;;;;4.62;2.33;;;;;;;12.87;43.59;100066.75;1760104;81;21121;-73
2022/05/08 02:15:37;;;;;;;8.53;2.30;;;;;;;12.82;43.82;100072.66;1759814;81;21049;-73
2022/05/08 02:18:09;;;;;;;5.87;2.58;;;;;;;12.78;43.90;100072.38;1759913;81;21447;-74
2022/05/08 02:20:36;;;;;;;17.52;2.90;;;;;;;12.73;43.97;100073.00;1759943;81;21122;-74
2022/05/08 02:23:03;;;;;;;8.08;2.55;;;;;;;12.70;44.09;100077.91;1759929;81;21022;-74
2022/05/08 02:25:34;;;;;;;10.70;2.75;;;;;;;12.67;44.19;100076.69;1759933;81;21090;-74
2022/05/08 02:27:58;;;;;;;8.88;2.85;;;;;;;12.63;44.33;100078.58;1759109;81;21054;-73
2022/05/08 02:30:25;;;;;;;4.75;2.47;;;;;;;12.60;44.48;100085.73;1759687;81;21058;-75
2022/05/08 02:32:56;;;;;;;11.75;2.90;;;;;;;12.55;44.76;100084.56;1760151;81;21148;-74
2022/05/08 02:35:22;;;;;;;5.60;2.83;;;;;;;12.50;44.67;100081.69;1759956;81;21077;-74
2022/05/08 02:37:52;;;;;;;9.25;3.10;;;;;;;12.50;44.81;100093.09;1760012;81;21072;-74
2022/05/08 02:40:19;;;;;;;5.72;2.47;;;;;;;12.47;45.07;100094.52;1759916;81;21065;-74
2022/05/08 02:42:46;;;;;;;9.38;2.85;;;;;;;12.44;45.07;100099.92;1759705;81;21089;-74
2022/05/08 02:45:13;;;;;;;3.55;2.35;;;;;;;12.42;45.09;100101.29;1760066;81;21218;-74
2022/05/08 02:47:45;;;;;;;5.90;2.42;;;;;;;12.41;45.20;100094.27;1759942;81;21980;-74
2022/05/08 02:50:13;;;;;;;3.80;2.22;;;;;;;12.41;45.29;100102.66;1759924;81;21585;-74
2022/05/08 02:52:40;;;;;;;5.15;2.47;;;;;;;12.38;45.46;100102.75;1761643;80;21164;-74
2022/05/08 03:00:39;;;;;;;9.78;2.60;;;;;;;12.30;45.92;100106.09;1726168;83;21463;-74
2022/05/08 03:03:06;;;;;;;7.53;2.30;;;;;;;12.26;46.17;100096.09;1756858;81;21513;-74
2022/05/08 03:05:33;;;;;;;6.15;2.77;;;;;;;12.25;46.14;100100.52;1756938;81;21093;-75
2022/05/08 03:08:00;;;;;;;7.33;2.25;;;;;;;12.23;46.34;100102.31;1725607;82;21134;-75
2022/05/08 03:11:25;;;;;;;6.47;2.25;;;;;;;12.22;46.24;100103.69;1756756;81;21082;-74
2022/05/08 03:13:00;;;;;;;3.75;2.80;;;;;;;12.21;46.38;100096.23;1753322;81;21572;-75
2022/05/08 03:15:26;;;;;;;5.33;2.67;;;;;;;12.21;46.48;100100.66;1725343;82;21094;-75
2022/05/08 03:17:53;;;;;;;10.98;2.50;;;;;;;12.19;46.46;100100.70;1756823;81;20999;-74
2022/05/08 03:20:20;;;;;;;7.37;2.60;;;;;;;12.21;46.48;100102.83;1729014;81;21093;-75
2022/05/08 03:22:47;;;;;;;8.73;2.72;;;;;;;12.21;46.71;100105.47;1725566;83;21079;-75
2022/05/08 03:25:13;;;;;;;5.00;2.47;;;;;;;12.21;46.79;100108.11;1757022;81;21144;-74
2022/05/08 03:27:41;;;;;;;5.53;2.67;;;;;;;12.21;46.95;100112.06;1756929;81;21176;-76
2022/05/08 03:30:09;;;;;;;11.10;2.50;;;;;;;12.20;47.00;100112.97;1725804;82;21078;-75
2022/05/08 03:32:38;;;;;;;7.28;2.90;;;;;;;12.21;47.18;100118.66;1757095;81;21172;-74
2022/05/08 03:35:06;;;;;;;5.95;2.58;;;;;;;12.23;47.06;100123.42;1756261;81;21018;-75
2022/05/08 03:37:33;;;;;;;8.70;2.67;;;;;;;12.28;46.92;100125.07;1756704;81;21072;-74
2022/05/08 03:39:59;;;;;;;5.85;2.62;;;;;;;12.31;47.17;100119.23;1756802;81;21112;-75
2022/05/08 03:42:26;;;;;;;7.42;3.00;;;;;;;12.36;46.94;100128.33;1756790;81;21062;-75
2022/05/08 03:44:54;;;;;;;9.58;3.20;;;;;;;12.38;47.14;100121.22;1756625;81;21164;-74
2022/05/08 03:47:21;;;;;;;3.92;2.47;;;;;;;12.41;47.01;100121.98;1756847;81;21100;-74
2022/05/08 03:49:47;;;;;;;10.43;2.70;;;;;;;12.43;47.05;100124.58;1756894;81;21108;-74
2022/05/08 03:52:14;;;;;;;7.53;2.60;;;;;;;12.47;47.10;100123.55;1757068;81;21121;-74
2022/05/08 03:54:40;;;;;;;7.60;2.70;;;;;;;12.51;47.20;100122.55;1756747;81;21050;-74
2022/05/08 03:57:07;;;;;;;5.92;2.77;;;;;;;12.53;47.51;100120.72;1756857;81;21093;-75
2022/05/08 03:59:34;;;;;;;6.60;3.00;;;;;;;12.57;47.05;100114.41;1759325;80;21641;-75
2022/05/08 04:02:01;;;;;;;8.33;3.17;;;;;;;12.60;47.32;100119.59;1759932;81;21132;-74
2022/05/08 04:04:27;;;;;;;4.28;2.65;;;;;;;12.63;47.19;100114.22;1759787;81;21078;-75
2022/05/08 04:06:55;;;;;;;6.12;2.75;;;;;;;12.67;47.42;100116.75;1759796;81;20994;-74
2022/05/08 04:09:22;;;;;;;6.08;3.02;;;;;;;12.69;47.25;100121.05;1759925;81;21022;-75
2022/05/08 04:11:48;;;;;;;6.12;2.47;;;;;;;12.72;47.56;100114.36;1759732;81;21603;-74
2022/05/08 04:14:16;;;;;;;11.38;3.40;;;;;;;12.76;47.94;100113.78;1759732;81;21483;-76
2022/05/08 04:16:43;;;;;;;10.00;2.72;;;;;;;12.79;47.83;100117.65;1760357;81;22129;-74
2022/05/08 04:19:09;;;;;;;4.97;2.60;;;;;;;12.85;47.95;100115.28;1760056;81;21493;-74
2022/05/08 04:21:36;;;;;;;9.90;2.87;;;;;;;12.93;47.78;100123.33;1759703;81;21643;-75
2022/05/08 04:24:18;;;;;;;3.52;2.90;;;;;;;12.98;47.74;100120.55;1759993;81;21568;-74
2022/05/08 04:26:45;;;;;;;7.22;2.83;;;;;;;13.03;47.96;100119.03;1760419;81;21592;-75
2022/05/08 04:29:13;;;;;;;10.93;3.30;;;;;;;13.09;48.30;100124.11;1760103;81;21129;-75
2022/05/08 04:31:40;;;;;;;12.80;3.77;;;;;;;13.14;48.63;100121.70;1760219;81;21062;-74
2022/05/08 04:34:06;;;;;;;11.28;3.08;;;;;;;13.21;47.54;100127.63;1759828;81;21124;-75
2022/05/08 04:36:34;;;;;;;9.40;3.62;;;;;;;13.27;47.87;100131.39;1759695;81;21072;-75
2022/05/08 04:39:00;;;;;;;10.60;3.08;;;;;;;13.32;47.47;100118.05;1759953;81;21088;-75
2022/05/08 04:41:27;;;;;;;9.90;3.70;;;;;;;13.37;47.37;100124.87;1759973;81;21101;-75
2022/05/08 04:43:59;;;;;;;8.78;3.12;;;;;;;13.42;47.38;100127.36;1759952;81;21097;-75
2022/05/08 04:46:23;;;;;;;7.70;3.02;;;;;;;13.46;47.06;100130.75;1759368;81;21085;-75
2022/05/08 04:48:50;;;;;;;10.10;3.92;;;;;;;13.50;47.01;100129.70;1760120;81;21175;-74
2022/05/08 04:51:16;;;;;;;8.95;4.03;;;;;;;13.53;47.31;100126.95;1763465;80;21072;-74
2022/05/08 04:53:43;;;;;;;9.20;3.40;;;;;;;13.58;47.62;100129.44;1760519;80;21534;-75
2022/05/08 04:56:09;;;;;;;5.08;3.33;;;;;;;13.62;47.57;100130.59;1724148;83;20992;-75
2022/05/08 04:58:36;;;;;;;7.58;3.42;;;;;;;13.68;46.98;100129.49;1759881;81;21042;-75
2022/05/08 05:01:05;;;;;;;7.97;3.40;;;;;;;13.74;47.06;100125.30;1759847;81;21534;-74
2022/05/08 05:03:32;;;;;;;5.80;4.03;;;;;;;13.81;47.29;100125.94;1724025;83;22094;-75
2022/05/08 05:05:58;;;;;;;11.43;3.40;;;;;;;13.87;47.25;100135.81;1760330;81;21101;-74
2022/05/08 05:08:25;;;;;;;11.70;3.67;;;;;;;13.93;46.57;100134.23;1759758;81;20999;-75
2022/05/08 05:10:52;;;;;;;7.97;3.40;;;;;;;13.97;46.41;100132.37;1724033;83;21047;-75
2022/05/08 05:13:19;;;;;;;11.25;3.65;;;;;;;14.02;46.82;100130.40;1759953;81;21105;-75
2022/05/08 05:15:46;;;;;;;8.55;3.08;;;;;;;14.07;46.55;100137.70;1759786;81;21019;-75
2022/05/08 05:18:12;;;;;;;9.73;3.67;;;;;;;14.11;46.37;100132.67;1724419;82;21110;-74
2022/05/08 05:20:39;;;;;;;7.97;3.58;;;;;;;14.13;46.08;100137.44;1759566;81;21115;-76
2022/05/08 05:23:05;;;;;;;6.45;3.70;;;;;;;14.13;46.15;100133.47;1759849;81;21083;-75
2022/05/08 05:25:32;;;;;;;7.92;3.70;;;;;;;14.17;46.27;100128.06;1723981;83;21409;-75
2022/05/08 05:27:59;;;;;;;9.48;3.62;;;;;;;14.23;46.34;100133.12;1759727;81;21545;-75
2022/05/08 05:30:25;;;;;;;15.78;3.98;;;;;;;14.29;46.14;100138.17;1760119;81;21124;-74
2022/05/08 05:32:52;;;;;;;16.55;3.87;;;;;;;14.34;46.01;100136.64;1723724;83;21081;-75
2022/05/08 05:35:19;;;;;;;8.55;3.90;;;;;;;14.35;46.03;100131.77;1724013;83;21096;-74
2022/05/08 05:37:46;;;;;;;9.45;3.92;;;;;;;14.38;46.07;100135.14;1724180;83;21128;-75
2022/05/08 05:40:12;;;;;;;11.55;3.67;;;;;;;14.44;46.25;100136.67;1724424;82;21040;-75
2022/05/08 05:42:39;;;;;;;11.03;3.55;;;;;;;14.47;45.80;100133.46;1724186;83;21119;-75
2022/05/08 05:45:07;;;;;;;6.17;3.60;;;;;;;14.54;46.23;100136.72;1724380;83;21092;-75
2022/05/08 05:47:52;;;;;;;11.78;3.72;;;;;;;14.61;46.21;100140.86;1724094;83;21579;-74
2022/05/08 05:50:24;;;;;;;11.70;4.05;;;;;;;14.66;45.63;100134.06;1723970;83;21053;-74
2022/05/08 05:52:52;;;;;;;8.08;3.85;;;;;;;14.70;45.83;100130.34;1723857;82;21060;-75
2022/05/08 05:55:18;;;;;;;6.03;3.33;;;;;;;14.78;46.55;100138.83;1724046;83;21879;-76
2022/05/08 05:57:45;;;;;;;7.70;3.98;;;;;;;14.89;45.57;100125.59;1724139;83;21551;-75
2022/05/08 06:00:15;;;;;;;6.47;4.10;;;;;;;14.99;44.90;100136.19;1725248;83;21564;-74
2022/05/08 06:02:43;;;;;;;15.38;4.92;;;;;;;15.04;44.84;100136.85;1724737;83;21077;-75
2022/05/08 06:05:11;;;;;;;9.35;3.95;;;;;;;15.11;44.96;100127.70;1725426;83;21089;-76
2022/05/08 06:07:38;;;;;;;15.00;4.20;;;;;;;15.22;44.90;100139.17;1725384;83;22276;-75
2022/05/08 06:10:07;;;;;;;7.80;3.50;;;;;;;15.29;45.12;100137.97;1725750;83;21612;-75
2022/05/08 06:12:34;;;;;;;9.75;3.77;;;;;;;15.40;45.26;100141.48;1725667;83;21575;-76
2022/05/08 06:15:00;;;;;;;12.05;3.37;;;;;;;15.50;44.86;100129.53;1725804;83;21529;-75
2022/05/08 06:17:28;;;;;;;12.43;3.70;;;;;;;15.56;44.71;100133.22;1725560;83;21557;-76
2022/05/08 06:19:56;;;;;;;10.80;3.72;;;;;;;15.64;44.65;100132.03;1725388;83;21671;-76
2022/05/08 06:22:22;;;;;;;8.70;4.10;;;;;;;15.70;44.17;100135.27;1725538;83;21522;-75
2022/05/08 06:24:49;;;;;;;9.80;3.98;;;;;;;15.78;44.67;100132.27;1725543;83;22242;-75
2022/05/08 06:27:15;;;;;;;11.80;4.00;;;;;;;15.89;44.25;100135.29;1725530;83;21517;-75
2022/05/08 06:29:42;;;;;;;6.58;4.15;;;;;;;15.97;44.96;100141.58;1725562;83;21647;-75
2022/05/08 06:32:09;;;;;;;6.17;4.22;;;;;;;16.01;43.47;100141.81;1725565;83;21487;-75
2022/05/08 06:34:36;;;;;;;7.45;3.87;;;;;;;16.02;43.66;100134.70;1725408;83;21077;-76
2022/05/08 06:37:03;;;;;;;8.93;3.90;;;;;;;16.02;43.92;100142.67;1725255;83;21122;-76
2022/05/08 06:39:30;;;;;;;11.15;4.25;;;;;;;16.01;43.82;100140.97;1725644;83;21045;-74
2022/05/08 06:41:57;;;;;;;20.15;4.92;;;;;;;16.05;44.08;100141.20;1725706;83;21029;-75
2022/05/08 06:44:25;;;;;;;8.78;3.55;;;;;;;16.10;43.87;100134.73;1724779;83;21525;-75
2022/05/08 06:46:51;;;;;;;5.67;3.60;;;;;;;16.19;43.85;100136.11;1725471;83;21058;-75
2022/05/08 06:49:18;;;;;;;7.20;3.62;;;;;;;16.25;43.38;100135.79;1725644;83;20990;-75
2022/05/08 06:51:46;;;;;;;10.58;4.17;;;;;;;16.29;43.16;100132.08;1725611;83;20998;-75
2022/05/08 06:54:14;;;;;;;6.30;3.92;;;;;;;16.30;43.44;100138.23;1725591;83;21516;-75
2022/05/08 06:56:41;;;;;;;5.62;3.65;;;;;;;16.33;43.25;100128.31;1725663;83;21749;-75
2022/05/08 07:01:54;;;;;;;8.88;4.00;;;;;;;16.48;43.25;100137.81;1722163;83;21157;-74
2022/05/08 07:04:20;;;;;;;8.73;4.20;;;;;;;16.59;43.30;100132.80;1719545;83;21089;-76
2022/05/08 07:06:47;;;;;;;213.72;54.60;;;;;;;16.69;42.12;100129.23;1723962;83;21053;-75
2022/05/08 07:09:14;;;;;;;50.52;16.80;;;;;;;16.75;41.83;100133.39;1723928;83;21980;-74
2022/05/08 07:11:47;;;;;;;7.80;4.90;;;;;;;16.82;41.53;100138.78;1723842;83;21066;-75
2022/05/08 07:14:12;;;;;;;14.23;4.42;;;;;;;16.97;41.69;100123.41;1721486;83;21143;-75
2022/05/08 07:16:38;;;;;;;12.88;4.95;;;;;;;17.21;42.26;100122.59;1723983;83;21141;-75
2022/05/08 07:19:05;;;;;;;10.38;4.47;;;;;;;17.50;42.38;100120.66;1724058;83;21038;-75
2022/05/08 07:21:31;;;;;;;7.53;4.20;;;;;;;17.77;41.06;100116.52;1724052;82;21800;-75
2022/05/08 07:23:58;;;;;;;11.28;4.40;;;;;;;18.02;40.50;100120.50;1729562;82;21042;-74
2022/05/08 07:26:24;;;;;;;10.93;4.30;;;;;;;18.20;39.59;100116.80;1738775;82;21525;-76
2022/05/08 07:28:51;;;;;;;7.45;3.77;;;;;;;18.31;38.43;100124.20;1738778;82;21514;-74
2022/05/08 07:31:17;;;;;;;6.85;3.83;;;;;;;18.35;37.35;100123.55;1739002;82;21132;-75
2022/05/08 07:33:44;;;;;;;8.60;4.55;;;;;;;18.37;38.11;100117.20;1738768;82;21574;-75
2022/05/08 07:36:13;;;;;;;9.28;3.95;;;;;;;18.49;39.11;100127.62;1756781;81;21565;-75
2022/05/08 07:38:43;;;;;;;14.68;3.87;;;;;;;18.60;39.58;100124.31;1725745;83;21047;-75
2022/05/08 07:41:16;;;;;;;9.73;3.15;;;;;;;18.64;38.55;100124.99;1725222;82;21074;-75
2022/05/08 07:43:45;;;;;;;8.15;3.87;;;;;;;18.59;38.05;100129.73;1725409;82;21118;-74
2022/05/08 07:46:13;;;;;;;6.03;4.15;;;;;;;18.47;38.01;100129.48;1725505;82;21089;-75
2022/05/08 07:48:41;;;;;;;8.38;4.17;;;;;;;18.34;38.61;100131.14;1725494;83;21011;-74
2022/05/08 07:51:07;;;;;;;11.57;5.10;;;;;;;18.20;38.41;100126.12;1725729;83;21224;-75
2022/05/08 07:53:34;;;;;;;12.13;4.10;;;;;;;18.11;38.75;100125.32;1725507;83;21032;-74
2022/05/08 07:56:01;;;;;;;27.00;4.03;;;;;;;18.05;38.84;100130.98;1725575;83;21070;-74
2022/05/08 07:58:28;;;;;;;13.08;4.10;;;;;;;17.97;39.25;100131.87;1725695;83;21545;-75
2022/05/08 08:00:56;;;;;;;8.20;4.03;;;;;;;17.94;38.80;100133.41;1718307;82;21040;-75
2022/05/08 08:03:24;;;;;;;8.08;3.90;;;;;;;17.93;39.13;100137.00;1716538;83;21563;-76
2022/05/08 08:05:52;;;;;;;7.55;4.47;;;;;;;17.94;39.18;100136.91;1716809;82;21076;-75
2022/05/08 08:08:21;;;;;;;14.00;4.03;;;;;;;17.95;39.04;100138.61;1716638;82;21075;-75
2022/05/08 08:10:49;;;;;;;9.25;4.08;;;;;;;17.94;38.80;100137.40;1716470;82;21156;-75
2022/05/08 08:13:15;;;;;;;11.18;4.25;;;;;;;17.95;39.57;100129.30;1716800;82;20992;-76
2022/05/08 08:15:45;;;;;;;12.18;5.03;;;;;;;18.02;39.99;100136.47;1716528;83;21063;-75
2022/05/08 08:18:12;;;;;;;10.30;4.40;;;;;;;18.11;39.53;100130.65;1716672;82;21456;-74
2022/05/08 08:20:39;;;;;;;8.60;3.83;;;;;;;18.19;39.14;100132.41;1716427;82;21103;-74
2022/05/08 08:23:06;;;;;;;8.95;3.25;;;;;;;18.26;38.44;100132.92;1716485;83;21111;-75
2022/05/08 08:25:32;;;;;;;9.35;4.42;;;;;;;18.32;38.94;100130.38;1716594;83;21024;-74
2022/05/08 08:28:01;;;;;;;15.45;4.35;;;;;;;18.42;39.16;100132.05;1716596;82;21561;-76
2022/05/08 08:30:28;;;;;;;16.57;4.17;;;;;;;18.54;39.30;100132.66;1716570;83;21028;-75
2022/05/08 08:32:55;;;;;;;17.62;4.08;;;;;;;18.66;39.69;100131.09;1716706;82;21559;-74
2022/05/08 08:35:22;;;;;;;10.18;3.47;;;;;;;18.77;37.35;100131.33;1716623;83;21434;-75
2022/05/08 08:37:49;;;;;;;9.80;3.60;;;;;;;18.87;37.02;100124.53;1716311;82;21012;-75
2022/05/08 08:40:15;;;;;;;12.25;4.03;;;;;;;19.02;36.38;100131.24;1716452;82;21008;-75
2022/05/08 08:42:42;;;;;;;12.05;3.80;;;;;;;19.15;36.61;100128.22;1716603;82;21581;-75
2022/05/08 08:48:02;;;;;;;10.68;4.12;;;;;;;19.53;36.08;100118.31;1716453;83;21361;-75
2022/05/08 08:50:29;;;;;;;10.18;4.35;;;;;;;19.63;35.89;100117.27;1716891;82;21535;-75
2022/05/08 08:52:58;;;;;;;8.15;4.03;;;;;;;19.62;36.14;100119.09;1754955;81;21049;-75
2022/05/08 08:55:24;;;;;;;11.95;4.58;;;;;;;19.65;35.29;100116.69;1715245;82;21015;-75
2022/05/08 08:57:51;;;;;;;10.08;3.98;;;;;;;19.68;35.34;100116.02;1755023;81;21520;-75
2022/05/08 09:00:21;;;;;;;13.98;3.80;;;;;;;19.81;34.95;100120.15;1755882;81;21915;-75
2022/05/08 09:02:50;;;;;;;7.05;3.50;;;;;;;19.92;35.07;100134.17;1725586;83;21047;-75
2022/05/08 09:05:16;;;;;;;8.48;3.90;;;;;;;20.04;33.59;100110.67;1756969;81;21025;-75
2022/05/08 09:07:50;;;;;;;10.13;3.55;;;;;;;20.15;33.70;100100.61;1756796;81;20995;-74
2022/05/08 09:10:26;;;;;;;9.03;3.62;;;;;;;20.31;33.16;100104.48;1725449;83;21162;-74
2022/05/08 09:13:02;;;;;;;7.90;3.75;;;;;;;20.44;33.82;100112.53;1757264;81;21109;-76
2022/05/08 09:15:37;;;;;;;7.97;3.55;;;;;;;20.59;33.05;100106.65;1755557;81;21026;-74
2022/05/08 09:18:12;;;;;;;5.97;3.70;;;;;;;20.64;32.55;100108.56;1753314;81;23719;-75
2022/05/08 09:20:51;;;;;;;14.18;3.98;;;;;;;20.64;33.21;100103.22;1752449;81;21824;-75
2022/05/08 09:23:19;;;;;;;10.90;3.70;;;;;;;20.70;33.12;100096.62;1752674;81;21070;-74
2022/05/08 09:26:02;;;;;;;16.57;3.80;;;;;;;20.82;31.75;100089.58;1752531;81;21125;-74
2022/05/08 09:28:44;;;;;;;9.03;3.83;;;;;;;20.88;31.89;100087.80;1752453;81;21583;-74
2022/05/08 09:31:16;;;;;;;8.38;3.45;;;;;;;21.01;31.73;100094.52;1752513;81;21557;-75
2022/05/08 09:33:45;;;;;;;12.37;3.90;;;;;;;21.18;31.18;100092.00;1752684;81;21069;-74
2022/05/08 09:36:22;;;;;;;13.43;3.87;;;;;;;21.20;30.13;100095.42;1752466;81;20990;-74
2022/05/08 09:38:54;;;;;;;9.30;3.75;;;;;;;21.04;30.78;100087.63;1753075;81;21065;-73
2022/05/08 09:41:23;;;;;;;8.58;3.62;;;;;;;20.85;30.69;100093.39;1752523;81;21141;-74
2022/05/08 09:43:51;;;;;;;8.68;3.92;;;;;;;20.72;31.38;100083.50;1752931;81;21127;-74
2022/05/08 09:46:20;;;;;;;16.07;3.85;;;;;;;20.85;32.32;100086.70;1752554;81;21190;-74
2022/05/08 09:48:47;;;;;;;9.38;3.60;;;;;;;21.06;32.07;100090.55;1752619;81;21011;-74
2022/05/08 09:51:17;;;;;;;10.23;3.58;;;;;;;21.19;31.14;100092.39;1752616;81;21124;-74
2022/05/08 09:53:46;;;;;;;8.30;3.50;;;;;;;21.25;30.69;100094.63;1752550;81;21042;-74
2022/05/08 09:56:13;;;;;;;10.10;3.83;;;;;;;21.21;31.14;100097.15;1752673;81;21101;-74
2022/05/08 09:58:40;;;;;;;11.65;3.75;;;;;;;21.15;31.74;100090.41;1752382;81;21093;-75
2022/05/08 10:01:07;;;;;;;7.72;3.65;;;;;;;21.17;31.52;100091.65;1752828;81;21006;-75
2022/05/08 10:03:34;;;;;;;10.20;3.52;;;;;;;21.15;31.76;100083.23;1752751;81;21191;-75
2022/05/08 10:06:01;;;;;;;10.72;3.70;;;;;;;21.26;32.21;100081.63;1752766;81;20987;-75
2022/05/08 10:08:37;;;;;;;6.87;3.30;;;;;;;21.42;32.25;100078.25;1752295;81;21097;-75
2022/05/08 10:16:57;;;;;;;9.13;3.72;;;;;;;21.73;29.62;100068.03;1753091;81;21521;-75
2022/05/08 10:19:32;;;;;;;13.15;3.90;;;;;;;21.77;30.26;100070.88;1752659;81;21595;-75
2022/05/08 10:22:03;;;;;;;7.62;3.95;;;;;;;21.69;29.83;100066.06;1753190;81;21010;-75
2022/05/08 10:24:35;;;;;;;7.12;4.03;;;;;;;21.51;30.25;100070.91;1752633;81;21025;-74
2022/05/08 10:27:27;;;;;;;6.40;3.58;;;;;;;21.45;29.58;100065.98;1753229;81;21377;-74
2022/05/08 10:30:01;;;;;;;10.00;3.85;;;;;;;21.46;30.34;100056.97;1752700;81;21641;-74
2022/05/08 10:32:35;;;;;;;7.28;3.52;;;;;;;21.54;30.52;100052.45;1752755;81;21097;-74
2022/05/08 10:35:19;;;;;;;8.85;3.83;;;;;;;21.68;31.75;100064.84;1752713;81;21655;-76
2022/05/08 10:38:06;;;;;;;15.40;4.50;;;;;;;21.78;32.30;100059.67;1752623;81;21121;-75
2022/05/08 10:40:34;;;;;;;9.78;6.47;;;;;;;21.89;31.78;100047.20;1752559;81;21038;-74
2022/05/08 10:43:25;;;;;;;10.00;3.87;;;;;;;21.95;32.09;100036.52;1752708;81;21748;-76
2022/05/08 10:45:46;;;;;;;11.18;3.65;;;;;;;22.11;31.62;100037.59;1752477;81;21104;-75
2022/05/08 10:48:16;;;;;;;12.30;3.58;;;;;;;22.13;30.95;100039.66;1755833;80;21046;-75
2022/05/08 10:50:55;;;;;;;6.17;4.40;;;;;;;21.95;30.09;100041.02;1719590;83;21592;-75
2022/05/08 10:53:32;;;;;;;13.40;4.67;;;;;;;21.76;30.17;100033.00;1724228;83;21059;-75
2022/05/08 10:56:05;;;;;;;14.38;5.22;;;;;;;21.67;30.24;100026.95;1724076;83;21823;-73
2022/05/08 10:58:34;;;;;;;6.67;3.75;;;;;;;21.58;30.77;100027.64;1724276;83;21007;-74
2022/05/08 11:01:03;;;;;;;13.08;3.60;;;;;;;21.52;30.09;100036.98;1746728;81;21498;-75
2022/05/08 11:03:30;;;;;;;10.15;3.47;;;;;;;21.41;29.43;100027.00;1722571;83;21142;-75
2022/05/08 11:05:57;;;;;;;11.12;3.30;;;;;;;21.31;29.73;100024.61;1722662;83;21078;-74
2022/05/08 11:08:29;;;;;;;7.22;3.50;;;;;;;21.26;30.12;100020.06;1728152;83;21173;-76
2022/05/08 11:11:10;;;;;;;5.92;3.50;;;;;;;21.34;29.91;100015.03;1728610;83;21528;-75
2022/05/08 11:13:47;;;;;;;9.38;3.47;;;;;;;21.40;29.30;100010.59;1728579;83;21586;-74
2022/05/08 11:16:34;;;;;;;6.72;3.40;;;;;;;21.49;29.48;100003.25;1728481;83;21057;-74
2022/05/08 11:19:03;;;;;;;7.33;3.75;;;;;;;21.73;29.49;100013.13;1728328;83;21049;-75
2022/05/08 11:21:31;;;;;;;5.70;3.60;;;;;;;21.85;28.57;100001.50;1728025;83;21027;-74
2022/05/08 11:23:58;;;;;;;12.03;3.55;;;;;;;21.78;28.17;100006.11;1727868;83;21089;-76
2022/05/08 11:26:34;;;;;;;8.55;3.83;;;;;;;21.66;28.43;99995.81;1728526;83;21125;-75
2022/05/08 11:29:03;;;;;;;17.60;4.08;;;;;;;21.51;28.94;99997.28;1728510;83;21085;-75
2022/05/08 11:31:32;;;;;;;10.05;3.45;;;;;;;21.42;29.61;99993.92;1728385;83;21077;-74
2022/05/08 11:36:45;;;;;;;10.58;3.98;;;;;;;21.46;29.73;99995.39;1728561;83;21113;-75
2022/05/08 11:39:19;;;;;;;18.40;3.75;;;;;;;21.46;29.30;99993.22;1728537;83;21005;-75
2022/05/08 11:41:49;;;;;;;6.28;3.47;;;;;;;21.48;29.52;99984.12;1728446;83;21136;-75
2022/05/08 11:44:21;;;;;;;6.80;3.37;;;;;;;21.65;29.05;99984.72;1728641;83;21049;-74
2022/05/08 11:46:51;;;;;;;13.85;4.30;;;;;;;21.84;28.49;99976.20;1728265;83;21146;-75
2022/05/08 11:49:29;;;;;;;7.75;3.95;;;;;;;22.01;28.37;99981.64;1728641;83;21002;-76